sensor_id;sensor_type;location;lat;lon;timestamp;P1;durP1;ratioP1;P2;durP2;ratioP2
20725;SDS011;10524;48.132;8.518;2023-08-17T00:01:34;13.20;;;11.77;;
20725;SDS011;10524;48.132;8.518;2023-08-17T00:04:00;14.55;;;12.07;;
20725;SDS011;10524;48.132;8.518;2023-08-17T00:06:26;12.95;;;11.65;;
20725;SDS011;10524;48.132;8.518;2023-08-17T00:08:51;18.20;;;14.05;;
20725;SDS011;10524;48.132;8.518;2023-08-17T00:11:17;15.40;;;13.70;;
20725;SDS011;10524;48.132;8.518;2023-08-17T00:13:42;14.43;;;12.95;;
20725;SDS011;10524;48.132;8.518;2023-08-17T00:16:08;17.98;;;14.52;;
20725;SDS011;10524;48.132;8.518;2023-08-17T00:18:34;13.80;;;12.38;;
20725;SDS011;10524;48.132;8.518;2023-08-17T00:20:59;14.20;;;12.05;;
20725;SDS011;10524;48.132;8.518;2023-08-17T00:23:25;16.77;;;13.57;;
20725;SDS011;10524;48.132;8.518;2023-08-17T00:25:50;13.23;;;11.82;;
20725;SDS011;10524;48.132;8.518;2023-08-17T00:28:16;14.88;;;13.32;;
20725;SDS011;10524;48.132;8.518;2023-08-17T00:30:42;15.82;;;13.55;;
20725;SDS011;10524;48.132;8.518;2023-08-17T00:33:07;15.05;;;12.40;;
20725;SDS011;10524;48.132;8.518;2023-08-17T00:35:33;28.00;;;13.85;;
20725;SDS011;10524;48.132;8.518;2023-08-17T00:37:59;45.67;;;14.50;;
20725;SDS011;10524;48.132;8.518;2023-08-17T00:40:25;25.30;;;12.65;;
20725;SDS011;10524;48.132;8.518;2023-08-17T00:42:50;27.05;;;14.15;;
20725;SDS011;10524;48.132;8.518;2023-08-17T00:45:17;22.30;;;14.48;;
20725;SDS011;10524;48.132;8.518;2023-08-17T00:47:44;27.13;;;13.40;;
20725;SDS011;10524;48.132;8.518;2023-08-17T00:50:10;17.85;;;12.15;;
20725;SDS011;10524;48.132;8.518;2023-08-17T00:52:36;36.70;;;13.23;;
20725;SDS011;10524;48.132;8.518;2023-08-17T00:55:03;23.58;;;12.80;;
20725;SDS011;10524;48.132;8.518;2023-08-17T00:57:30;32.03;;;14.27;;
20725;SDS011;10524;48.132;8.518;2023-08-17T00:59:58;25.42;;;13.90;;
20725;SDS011;10524;48.132;8.518;2023-08-17T01:02:24;18.77;;;11.88;;
20725;SDS011;10524;48.132;8.518;2023-08-17T01:04:50;15.90;;;11.68;;
20725;SDS011;10524;48.132;8.518;2023-08-17T01:07:15;24.20;;;13.18;;
20725;SDS011;10524;48.132;8.518;2023-08-17T01:09:41;24.25;;;14.38;;
20725;SDS011;10524;48.132;8.518;2023-08-17T01:12:28;26.55;;;13.55;;
20725;SDS011;10524;48.132;8.518;2023-08-17T01:14:59;24.58;;;14.02;;
20725;SDS011;10524;48.132;8.518;2023-08-17T01:20:12;17.38;;;13.20;;
20725;SDS011;10524;48.132;8.518;2023-08-17T01:22:42;16.20;;;12.95;;
20725;SDS011;10524;48.132;8.518;2023-08-17T01:25:11;17.98;;;14.40;;
20725;SDS011;10524;48.132;8.518;2023-08-17T01:27:41;22.42;;;14.48;;
20725;SDS011;10524;48.132;8.518;2023-08-17T01:33:03;21.13;;;12.90;;
20725;SDS011;10524;48.132;8.518;2023-08-17T01:35:39;13.77;;;11.95;;
20725;SDS011;10524;48.132;8.518;2023-08-17T01:38:07;14.30;;;11.70;;
20725;SDS011;10524;48.132;8.518;2023-08-17T01:40:36;13.57;;;12.18;;
20725;SDS011;10524;48.132;8.518;2023-08-17T01:43:02;13.98;;;12.40;;
20725;SDS011;10524;48.132;8.518;2023-08-17T01:45:28;12.70;;;11.40;;
20725;SDS011;10524;48.132;8.518;2023-08-17T01:47:54;14.32;;;12.75;;
20725;SDS011;10524;48.132;8.518;2023-08-17T01:50:20;14.65;;;12.40;;
20725;SDS011;10524;48.132;8.518;2023-08-17T01:52:46;18.73;;;14.48;;
20725;SDS011;10524;48.132;8.518;2023-08-17T01:55:11;14.55;;;12.48;;
20725;SDS011;10524;48.132;8.518;2023-08-17T01:57:37;15.15;;;12.80;;
20725;SDS011;10524;48.132;8.518;2023-08-17T02:00:03;13.60;;;12.13;;
20725;SDS011;10524;48.132;8.518;2023-08-17T02:02:30;13.13;;;11.70;;
20725;SDS011;10524;48.132;8.518;2023-08-17T02:04:56;14.63;;;12.43;;
20725;SDS011;10524;48.132;8.518;2023-08-17T02:07:21;17.35;;;13.15;;
20725;SDS011;10524;48.132;8.518;2023-08-17T02:09:47;16.83;;;12.45;;
20725;SDS011;10524;48.132;8.518;2023-08-17T02:12:13;17.35;;;12.75;;
20725;SDS011;10524;48.132;8.518;2023-08-17T02:14:38;15.27;;;12.60;;
20725;SDS011;10524;48.132;8.518;2023-08-17T02:17:04;14.35;;;12.85;;
20725;SDS011;10524;48.132;8.518;2023-08-17T02:19:31;14.63;;;11.95;;
20725;SDS011;10524;48.132;8.518;2023-08-17T02:21:57;14.32;;;12.43;;
20725;SDS011;10524;48.132;8.518;2023-08-17T02:24:23;14.65;;;12.93;;
20725;SDS011;10524;48.132;8.518;2023-08-17T02:26:49;12.77;;;11.48;;
20725;SDS011;10524;48.132;8.518;2023-08-17T02:29:15;12.68;;;11.38;;
20725;SDS011;10524;48.132;8.518;2023-08-17T02:31:40;12.65;;;11.35;;
20725;SDS011;10524;48.132;8.518;2023-08-17T02:34:06;13.00;;;11.70;;
20725;SDS011;10524;48.132;8.518;2023-08-17T02:36:33;16.17;;;13.27;;
20725;SDS011;10524;48.132;8.518;2023-08-17T02:38:58;13.73;;;12.27;;
20725;SDS011;10524;48.132;8.518;2023-08-17T02:41:24;16.48;;;13.73;;
20725;SDS011;10524;48.132;8.518;2023-08-17T02:43:49;17.05;;;14.00;;
20725;SDS011;10524;48.132;8.518;2023-08-17T02:46:15;14.80;;;13.25;;
20725;SDS011;10524;48.132;8.518;2023-08-17T02:48:41;15.80;;;12.07;;
20725;SDS011;10524;48.132;8.518;2023-08-17T02:51:06;14.23;;;12.75;;
20725;SDS011;10524;48.132;8.518;2023-08-17T02:53:32;16.40;;;13.70;;
20725;SDS011;10524;48.132;8.518;2023-08-17T02:55:57;12.63;;;11.38;;
20725;SDS011;10524;48.132;8.518;2023-08-17T02:58:23;15.10;;;13.07;;
20725;SDS011;10524;48.132;8.518;2023-08-17T03:00:50;17.08;;;12.98;;
20725;SDS011;10524;48.132;8.518;2023-08-17T03:03:17;16.30;;;13.48;;
20725;SDS011;10524;48.132;8.518;2023-08-17T03:05:42;14.05;;;12.65;;
20725;SDS011;10524;48.132;8.518;2023-08-17T03:08:08;13.57;;;11.90;;
20725;SDS011;10524;48.132;8.518;2023-08-17T03:10:34;12.45;;;11.15;;
20725;SDS011;10524;48.132;8.518;2023-08-17T03:12:59;13.13;;;11.07;;
20725;SDS011;10524;48.132;8.518;2023-08-17T03:15:25;12.93;;;10.70;;
20725;SDS011;10524;48.132;8.518;2023-08-17T03:17:51;13.23;;;11.82;;
20725;SDS011;10524;48.132;8.518;2023-08-17T03:20:16;13.30;;;11.90;;
20725;SDS011;10524;48.132;8.518;2023-08-17T03:22:42;14.18;;;11.68;;
20725;SDS011;10524;48.132;8.518;2023-08-17T03:25:08;13.50;;;11.18;;
20725;SDS011;10524;48.132;8.518;2023-08-17T03:27:33;11.38;;;10.25;;
20725;SDS011;10524;48.132;8.518;2023-08-17T03:29:59;11.32;;;10.23;;
20725;SDS011;10524;48.132;8.518;2023-08-17T03:32:25;12.82;;;11.02;;
20725;SDS011;10524;48.132;8.518;2023-08-17T03:34:50;15.77;;;13.02;;
20725;SDS011;10524;48.132;8.518;2023-08-17T03:37:16;15.45;;;13.82;;
20725;SDS011;10524;48.132;8.518;2023-08-17T03:39:42;13.75;;;12.35;;
20725;SDS011;10524;48.132;8.518;2023-08-17T03:42:07;13.68;;;12.32;;
20725;SDS011;10524;48.132;8.518;2023-08-17T03:44:33;13.50;;;11.45;;
20725;SDS011;10524;48.132;8.518;2023-08-17T03:46:58;14.85;;;12.35;;
20725;SDS011;10524;48.132;8.518;2023-08-17T03:49:24;14.48;;;11.73;;
20725;SDS011;10524;48.132;8.518;2023-08-17T03:51:50;12.05;;;10.35;;
20725;SDS011;10524;48.132;8.518;2023-08-17T03:54:16;14.73;;;12.80;;
20725;SDS011;10524;48.132;8.518;2023-08-17T03:56:43;14.13;;;12.70;;
20725;SDS011;10524;48.132;8.518;2023-08-17T03:59:09;13.60;;;11.82;;
20725;SDS011;10524;48.132;8.518;2023-08-17T04:01:35;12.93;;;10.63;;
20725;SDS011;10524;48.132;8.518;2023-08-17T04:04:00;12.50;;;10.05;;
20725;SDS011;10524;48.132;8.518;2023-08-17T04:06:27;15.20;;;12.73;;
20725;SDS011;10524;48.132;8.518;2023-08-17T04:08:52;12.43;;;10.57;;
20725;SDS011;10524;48.132;8.518;2023-08-17T04:11:18;11.25;;;10.15;;
20725;SDS011;10524;48.132;8.518;2023-08-17T04:13:44;12.32;;;10.82;;
20725;SDS011;10524;48.132;8.518;2023-08-17T04:16:09;11.93;;;10.63;;
20725;SDS011;10524;48.132;8.518;2023-08-17T04:18:35;11.98;;;10.23;;
20725;SDS011;10524;48.132;8.518;2023-08-17T04:21:00;12.25;;;10.90;;
20725;SDS011;10524;48.132;8.518;2023-08-17T04:23:26;13.02;;;10.77;;
20725;SDS011;10524;48.132;8.518;2023-08-17T04:25:52;11.45;;;10.25;;
20725;SDS011;10524;48.132;8.518;2023-08-17T04:28:19;11.90;;;10.70;;
20725;SDS011;10524;48.132;8.518;2023-08-17T04:30:44;11.95;;;10.63;;
20725;SDS011;10524;48.132;8.518;2023-08-17T04:33:10;12.55;;;10.73;;
20725;SDS011;10524;48.132;8.518;2023-08-17T04:38:14;14.57;;;11.98;;
20725;SDS011;10524;48.132;8.518;2023-08-17T04:40:39;12.85;;;11.35;;
20725;SDS011;10524;48.132;8.518;2023-08-17T04:43:06;11.90;;;10.70;;
20725;SDS011;10524;48.132;8.518;2023-08-17T04:45:32;13.05;;;11.70;;
20725;SDS011;10524;48.132;8.518;2023-08-17T04:47:57;12.75;;;11.40;;
20725;SDS011;10524;48.132;8.518;2023-08-17T04:50:23;15.32;;;10.30;;
20725;SDS011;10524;48.132;8.518;2023-08-17T04:52:49;11.25;;;10.07;;
20725;SDS011;10524;48.132;8.518;2023-08-17T04:55:14;11.10;;;9.77;;
20725;SDS011;10524;48.132;8.518;2023-08-17T04:57:40;9.15;;;8.25;;
20725;SDS011;10524;48.132;8.518;2023-08-17T05:00:06;12.30;;;8.27;;
20725;SDS011;10524;48.132;8.518;2023-08-17T05:02:35;8.38;;;7.63;;
20725;SDS011;10524;48.132;8.518;2023-08-17T05:05:05;6.93;;;6.22;;
20725;SDS011;10524;48.132;8.518;2023-08-17T05:07:31;6.57;;;5.85;;
20725;SDS011;10524;48.132;8.518;2023-08-17T05:09:57;6.90;;;6.20;;
20725;SDS011;10524;48.132;8.518;2023-08-17T05:12:23;6.40;;;5.65;;
20725;SDS011;10524;48.132;8.518;2023-08-17T05:14:49;6.47;;;5.90;;
20725;SDS011;10524;48.132;8.518;2023-08-17T05:17:14;6.70;;;5.65;;
20725;SDS011;10524;48.132;8.518;2023-08-17T05:19:40;6.53;;;5.93;;
20725;SDS011;10524;48.132;8.518;2023-08-17T05:22:10;8.13;;;6.15;;
20725;SDS011;10524;48.132;8.518;2023-08-17T05:24:37;7.03;;;6.32;;
20725;SDS011;10524;48.132;8.518;2023-08-17T05:27:03;6.72;;;6.10;;
20725;SDS011;10524;48.132;8.518;2023-08-17T05:29:29;8.45;;;6.70;;
20725;SDS011;10524;48.132;8.518;2023-08-17T05:31:57;7.90;;;7.10;;
20725;SDS011;10524;48.132;8.518;2023-08-17T05:34:23;7.68;;;6.28;;
20725;SDS011;10524;48.132;8.518;2023-08-17T05:36:48;6.50;;;5.90;;
20725;SDS011;10524;48.132;8.518;2023-08-17T05:39:14;8.73;;;6.38;;
20725;SDS011;10524;48.132;8.518;2023-08-17T05:41:40;7.32;;;5.43;;
20725;SDS011;10524;48.132;8.518;2023-08-17T05:44:06;6.07;;;5.53;;
20725;SDS011;10524;48.132;8.518;2023-08-17T05:46:34;7.38;;;5.00;;
20725;SDS011;10524;48.132;8.518;2023-08-17T05:49:01;7.68;;;4.55;;
20725;SDS011;10524;48.132;8.518;2023-08-17T05:51:27;4.80;;;4.30;;
20725;SDS011;10524;48.132;8.518;2023-08-17T05:53:52;5.95;;;4.57;;
20725;SDS011;10524;48.132;8.518;2023-08-17T05:56:18;7.03;;;4.50;;
20725;SDS011;10524;48.132;8.518;2023-08-17T05:58:43;4.70;;;4.10;;
20725;SDS011;10524;48.132;8.518;2023-08-17T06:01:09;5.00;;;4.60;;
20725;SDS011;10524;48.132;8.518;2023-08-17T06:03:36;6.15;;;4.07;;
20725;SDS011;10524;48.132;8.518;2023-08-17T06:06:02;6.53;;;4.70;;
20725;SDS011;10524;48.132;8.518;2023-08-17T06:08:29;4.95;;;4.40;;
20725;SDS011;10524;48.132;8.518;2023-08-17T06:10:55;5.50;;;3.90;;
20725;SDS011;10524;48.132;8.518;2023-08-17T06:13:21;5.13;;;4.55;;
20725;SDS011;10524;48.132;8.518;2023-08-17T06:15:46;5.07;;;4.22;;
20725;SDS011;10524;48.132;8.518;2023-08-17T06:18:12;3.92;;;3.50;;
20725;SDS011;10524;48.132;8.518;2023-08-17T06:20:38;5.20;;;3.50;;
20725;SDS011;10524;48.132;8.518;2023-08-17T06:23:04;4.63;;;3.10;;
20725;SDS011;10524;48.132;8.518;2023-08-17T06:25:29;4.85;;;3.30;;
20725;SDS011;10524;48.132;8.518;2023-08-17T06:27:55;3.20;;;3.00;;
20725;SDS011;10524;48.132;8.518;2023-08-17T06:30:21;3.53;;;3.22;;
20725;SDS011;10524;48.132;8.518;2023-08-17T06:32:47;6.85;;;3.15;;
20725;SDS011;10524;48.132;8.518;2023-08-17T06:35:13;4.90;;;2.95;;
20725;SDS011;10524;48.132;8.518;2023-08-17T06:37:38;6.43;;;3.40;;
20725;SDS011;10524;48.132;8.518;2023-08-17T06:40:05;3.58;;;3.28;;
20725;SDS011;10524;48.132;8.518;2023-08-17T06:42:31;4.22;;;3.30;;
20725;SDS011;10524;48.132;8.518;2023-08-17T06:44:57;5.18;;;3.22;;
20725;SDS011;10524;48.132;8.518;2023-08-17T06:47:23;5.43;;;3.80;;
20725;SDS011;10524;48.132;8.518;2023-08-17T06:49:48;3.60;;;3.22;;
20725;SDS011;10524;48.132;8.518;2023-08-17T06:52:14;7.18;;;4.13;;
20725;SDS011;10524;48.132;8.518;2023-08-17T06:54:40;5.63;;;4.15;;
20725;SDS011;10524;48.132;8.518;2023-08-17T06:57:05;5.03;;;3.58;;
20725;SDS011;10524;48.132;8.518;2023-08-17T06:59:31;4.78;;;3.70;;
20725;SDS011;10524;48.132;8.518;2023-08-17T07:01:58;5.38;;;3.33;;
20725;SDS011;10524;48.132;8.518;2023-08-17T07:04:24;5.20;;;3.40;;
20725;SDS011;10524;48.132;8.518;2023-08-17T07:06:50;5.10;;;2.72;;
20725;SDS011;10524;48.132;8.518;2023-08-17T07:09:16;4.68;;;2.53;;
20725;SDS011;10524;48.132;8.518;2023-08-17T07:11:41;3.40;;;2.40;;
20725;SDS011;10524;48.132;8.518;2023-08-17T07:14:07;5.85;;;2.83;;
20725;SDS011;10524;48.132;8.518;2023-08-17T07:16:33;4.80;;;2.50;;
20725;SDS011;10524;48.132;8.518;2023-08-17T07:18:59;4.40;;;2.90;;
20725;SDS011;10524;48.132;8.518;2023-08-17T07:21:25;4.60;;;3.20;;
20725;SDS011;10524;48.132;8.518;2023-08-17T07:23:51;3.65;;;2.70;;
20725;SDS011;10524;48.132;8.518;2023-08-17T07:26:19;3.05;;;2.75;;
20725;SDS011;10524;48.132;8.518;2023-08-17T07:28:45;4.03;;;3.30;;
20725;SDS011;10524;48.132;8.518;2023-08-17T07:31:12;5.10;;;3.20;;
20725;SDS011;10524;48.132;8.518;2023-08-17T07:33:38;5.68;;;3.88;;
20725;SDS011;10524;48.132;8.518;2023-08-17T07:36:04;4.15;;;3.30;;
20725;SDS011;10524;48.132;8.518;2023-08-17T07:38:30;5.78;;;3.83;;
20725;SDS011;10524;48.132;8.518;2023-08-17T07:40:56;4.65;;;3.67;;
20725;SDS011;10524;48.132;8.518;2023-08-17T07:43:22;6.53;;;3.80;;
20725;SDS011;10524;48.132;8.518;2023-08-17T07:45:55;4.28;;;2.75;;
20725;SDS011;10524;48.132;8.518;2023-08-17T07:48:21;5.57;;;3.15;;
20725;SDS011;10524;48.132;8.518;2023-08-17T07:50:50;4.70;;;3.47;;
20725;SDS011;10524;48.132;8.518;2023-08-17T07:53:17;4.95;;;3.58;;
20725;SDS011;10524;48.132;8.518;2023-08-17T07:55:43;5.40;;;4.10;;
20725;SDS011;10524;48.132;8.518;2023-08-17T07:58:09;4.57;;;3.40;;
20725;SDS011;10524;48.132;8.518;2023-08-17T08:00:34;4.22;;;3.40;;
20725;SDS011;10524;48.132;8.518;2023-08-17T08:03:00;4.47;;;4.07;;
20725;SDS011;10524;48.132;8.518;2023-08-17T08:05:26;5.15;;;3.10;;
20725;SDS011;10524;48.132;8.518;2023-08-17T08:07:52;3.85;;;3.30;;
20725;SDS011;10524;48.132;8.518;2023-08-17T08:10:17;2.88;;;2.50;;
20725;SDS011;10524;48.132;8.518;2023-08-17T08:12:43;5.40;;;3.60;;
20725;SDS011;10524;48.132;8.518;2023-08-17T08:15:09;5.20;;;3.38;;
20725;SDS011;10524;48.132;8.518;2023-08-17T08:17:35;3.58;;;3.15;;
20725;SDS011;10524;48.132;8.518;2023-08-17T08:20:00;4.00;;;2.65;;
20725;SDS011;10524;48.132;8.518;2023-08-17T08:22:26;4.60;;;3.85;;
20725;SDS011;10524;48.132;8.518;2023-08-17T08:24:52;3.58;;;2.97;;
20725;SDS011;10524;48.132;8.518;2023-08-17T08:27:18;5.30;;;3.20;;
20725;SDS011;10524;48.132;8.518;2023-08-17T08:29:44;4.93;;;2.78;;
20725;SDS011;10524;48.132;8.518;2023-08-17T08:32:09;3.50;;;2.85;;
20725;SDS011;10524;48.132;8.518;2023-08-17T08:34:35;3.92;;;2.60;;
20725;SDS011;10524;48.132;8.518;2023-08-17T08:37:01;4.55;;;3.38;;
20725;SDS011;10524;48.132;8.518;2023-08-17T08:39:26;5.10;;;2.90;;
20725;SDS011;10524;48.132;8.518;2023-08-17T08:41:53;5.85;;;3.30;;
20725;SDS011;10524;48.132;8.518;2023-08-17T08:44:19;5.32;;;3.55;;
20725;SDS011;10524;48.132;8.518;2023-08-17T08:46:45;3.15;;;2.80;;
20725;SDS011;10524;48.132;8.518;2023-08-17T08:49:11;4.72;;;2.70;;
20725;SDS011;10524;48.132;8.518;2023-08-17T08:51:44;5.50;;;3.38;;
20725;SDS011;10524;48.132;8.518;2023-08-17T08:54:14;3.53;;;3.03;;
20725;SDS011;10524;48.132;8.518;2023-08-17T08:56:45;4.25;;;3.20;;
20725;SDS011;10524;48.132;8.518;2023-08-17T08:59:15;5.32;;;3.00;;
20725;SDS011;10524;48.132;8.518;2023-08-17T09:01:42;5.95;;;3.50;;
20725;SDS011;10524;48.132;8.518;2023-08-17T09:04:08;4.15;;;3.25;;
20725;SDS011;10524;48.132;8.518;2023-08-17T09:06:33;2.83;;;2.55;;
20725;SDS011;10524;48.132;8.518;2023-08-17T09:09:00;3.08;;;2.42;;
20725;SDS011;10524;48.132;8.518;2023-08-17T09:11:27;5.45;;;3.35;;
20725;SDS011;10524;48.132;8.518;2023-08-17T09:13:53;3.45;;;2.83;;
20725;SDS011;10524;48.132;8.518;2023-08-17T09:16:19;5.20;;;2.65;;
20725;SDS011;10524;48.132;8.518;2023-08-17T09:18:45;6.65;;;2.95;;
20725;SDS011;10524;48.132;8.518;2023-08-17T09:21:21;6.72;;;3.08;;
20725;SDS011;10524;48.132;8.518;2023-08-17T09:23:51;4.30;;;2.70;;
20725;SDS011;10524;48.132;8.518;2023-08-17T09:26:19;3.30;;;2.45;;
20725;SDS011;10524;48.132;8.518;2023-08-17T09:28:47;4.70;;;2.67;;
20725;SDS011;10524;48.132;8.518;2023-08-17T09:31:13;4.28;;;2.50;;
20725;SDS011;10524;48.132;8.518;2023-08-17T09:33:39;5.47;;;2.90;;
20725;SDS011;10524;48.132;8.518;2023-08-17T09:36:05;4.85;;;2.85;;
20725;SDS011;10524;48.132;8.518;2023-08-17T09:38:30;4.03;;;2.80;;
20725;SDS011;10524;48.132;8.518;2023-08-17T09:40:57;4.50;;;2.80;;
20725;SDS011;10524;48.132;8.518;2023-08-17T09:43:23;4.28;;;3.03;;
20725;SDS011;10524;48.132;8.518;2023-08-17T09:45:53;4.07;;;3.60;;
20725;SDS011;10524;48.132;8.518;2023-08-17T09:48:19;5.72;;;3.30;;
20725;SDS011;10524;48.132;8.518;2023-08-17T09:50:46;3.78;;;3.00;;
20725;SDS011;10524;48.132;8.518;2023-08-17T09:53:17;4.63;;;3.55;;
20725;SDS011;10524;48.132;8.518;2023-08-17T09:55:46;6.05;;;3.10;;
20725;SDS011;10524;48.132;8.518;2023-08-17T09:58:12;5.75;;;3.60;;
20725;SDS011;10524;48.132;8.518;2023-08-17T10:00:45;3.78;;;3.30;;
20725;SDS011;10524;48.132;8.518;2023-08-17T10:03:13;5.23;;;3.30;;
20725;SDS011;10524;48.132;8.518;2023-08-17T10:05:40;5.20;;;3.65;;
20725;SDS011;10524;48.132;8.518;2023-08-17T10:08:10;9.25;;;4.10;;
20725;SDS011;10524;48.132;8.518;2023-08-17T10:10:38;6.40;;;4.03;;
20725;SDS011;10524;48.132;8.518;2023-08-17T10:13:11;5.25;;;3.85;;
20725;SDS011;10524;48.132;8.518;2023-08-17T10:18:27;6.50;;;3.97;;
20725;SDS011;10524;48.132;8.518;2023-08-17T10:21:18;4.75;;;3.95;;
20725;SDS011;10524;48.132;8.518;2023-08-17T10:23:55;4.72;;;4.10;;
20725;SDS011;10524;48.132;8.518;2023-08-17T10:26:22;5.28;;;4.00;;
20725;SDS011;10524;48.132;8.518;2023-08-17T10:28:48;4.85;;;3.80;;
20725;SDS011;10524;48.132;8.518;2023-08-17T10:31:15;6.00;;;4.13;;
20725;SDS011;10524;48.132;8.518;2023-08-17T10:33:41;5.43;;;4.03;;
20725;SDS011;10524;48.132;8.518;2023-08-17T10:36:11;5.97;;;4.20;;
20725;SDS011;10524;48.132;8.518;2023-08-17T10:38:37;4.28;;;3.85;;
20725;SDS011;10524;48.132;8.518;2023-08-17T10:41:13;5.20;;;4.38;;
20725;SDS011;10524;48.132;8.518;2023-08-17T10:43:58;3.95;;;3.60;;
20725;SDS011;10524;48.132;8.518;2023-08-17T10:46:34;4.20;;;3.72;;
20725;SDS011;10524;48.132;8.518;2023-08-17T10:49:01;7.20;;;4.07;;
20725;SDS011;10524;48.132;8.518;2023-08-17T10:51:34;6.53;;;4.18;;
20725;SDS011;10524;48.132;8.518;2023-08-17T10:54:03;4.22;;;3.60;;
20725;SDS011;10524;48.132;8.518;2023-08-17T10:56:29;6.32;;;3.95;;
20725;SDS011;10524;48.132;8.518;2023-08-17T10:59:01;7.60;;;4.10;;
20725;SDS011;10524;48.132;8.518;2023-08-17T11:01:31;5.13;;;4.20;;
20725;SDS011;10524;48.132;8.518;2023-08-17T11:04:10;4.85;;;4.28;;
20725;SDS011;10524;48.132;8.518;2023-08-17T11:06:43;5.75;;;4.47;;
20725;SDS011;10524;48.132;8.518;2023-08-17T11:09:10;4.90;;;4.35;;
20725;SDS011;10524;48.132;8.518;2023-08-17T11:11:36;5.70;;;4.80;;
20725;SDS011;10524;48.132;8.518;2023-08-17T11:14:02;7.57;;;4.60;;
20725;SDS011;10524;48.132;8.518;2023-08-17T11:16:28;8.95;;;4.80;;
20725;SDS011;10524;48.132;8.518;2023-08-17T11:18:54;9.10;;;5.05;;
20725;SDS011;10524;48.132;8.518;2023-08-17T11:21:22;6.93;;;4.15;;
20725;SDS011;10524;48.132;8.518;2023-08-17T11:23:48;4.78;;;3.70;;
20725;SDS011;10524;48.132;8.518;2023-08-17T11:26:17;6.32;;;3.40;;
20725;SDS011;10524;48.132;8.518;2023-08-17T11:28:44;4.72;;;3.60;;
20725;SDS011;10524;48.132;8.518;2023-08-17T11:31:11;6.13;;;3.75;;
20725;SDS011;10524;48.132;8.518;2023-08-17T11:33:38;4.03;;;3.60;;
20725;SDS011;10524;48.132;8.518;2023-08-17T11:36:05;5.80;;;3.72;;
20725;SDS011;10524;48.132;8.518;2023-08-17T11:38:32;4.00;;;3.60;;
20725;SDS011;10524;48.132;8.518;2023-08-17T11:41:03;6.00;;;3.65;;
20725;SDS011;10524;48.132;8.518;2023-08-17T11:43:29;5.30;;;3.50;;
20725;SDS011;10524;48.132;8.518;2023-08-17T11:45:57;4.38;;;3.35;;
20725;SDS011;10524;48.132;8.518;2023-08-17T11:48:23;5.75;;;3.90;;
20725;SDS011;10524;48.132;8.518;2023-08-17T11:50:49;5.10;;;4.60;;
20725;SDS011;10524;48.132;8.518;2023-08-17T11:53:15;6.50;;;5.50;;
20725;SDS011;10524;48.132;8.518;2023-08-17T11:55:41;8.32;;;4.93;;
20725;SDS011;10524;48.132;8.518;2023-08-17T11:58:07;6.38;;;4.70;;
20725;SDS011;10524;48.132;8.518;2023-08-17T12:00:36;5.55;;;4.82;;
20725;SDS011;10524;48.132;8.518;2023-08-17T12:03:06;5.28;;;4.40;;
20725;SDS011;10524;48.132;8.518;2023-08-17T12:05:32;6.47;;;5.20;;
20725;SDS011;10524;48.132;8.518;2023-08-17T12:08:01;4.50;;;4.10;;
20725;SDS011;10524;48.132;8.518;2023-08-17T12:10:37;7.15;;;4.63;;
20725;SDS011;10524;48.132;8.518;2023-08-17T12:13:11;7.80;;;4.93;;
20725;SDS011;10524;48.132;8.518;2023-08-17T12:15:38;4.90;;;4.50;;
20725;SDS011;10524;48.132;8.518;2023-08-17T12:18:04;5.82;;;5.13;;
20725;SDS011;10524;48.132;8.518;2023-08-17T12:20:30;5.65;;;4.90;;
20725;SDS011;10524;48.132;8.518;2023-08-17T12:23:00;8.40;;;4.90;;
20725;SDS011;10524;48.132;8.518;2023-08-17T12:25:28;6.28;;;4.60;;
20725;SDS011;10524;48.132;8.518;2023-08-17T12:27:59;6.70;;;4.65;;
20725;SDS011;10524;48.132;8.518;2023-08-17T12:30:29;6.40;;;5.05;;
20725;SDS011;10524;48.132;8.518;2023-08-17T12:33:01;6.90;;;4.90;;
20725;SDS011;10524;48.132;8.518;2023-08-17T12:35:26;5.18;;;4.45;;
20725;SDS011;10524;48.132;8.518;2023-08-17T12:37:52;6.57;;;4.50;;
20725;SDS011;10524;48.132;8.518;2023-08-17T12:40:19;5.22;;;4.00;;
20725;SDS011;10524;48.132;8.518;2023-08-17T12:42:45;6.18;;;3.90;;
20725;SDS011;10524;48.132;8.518;2023-08-17T12:45:11;6.20;;;3.88;;
20725;SDS011;10524;48.132;8.518;2023-08-17T12:47:37;6.57;;;3.58;;
20725;SDS011;10524;48.132;8.518;2023-08-17T12:50:03;7.10;;;4.00;;
20725;SDS011;10524;48.132;8.518;2023-08-17T12:52:29;7.05;;;3.65;;
20725;SDS011;10524;48.132;8.518;2023-08-17T12:54:55;6.57;;;3.90;;
20725;SDS011;10524;48.132;8.518;2023-08-17T12:57:21;4.88;;;3.33;;
20725;SDS011;10524;48.132;8.518;2023-08-17T12:59:47;4.50;;;3.10;;
20725;SDS011;10524;48.132;8.518;2023-08-17T13:02:12;5.88;;;3.40;;
20725;SDS011;10524;48.132;8.518;2023-08-17T13:04:39;7.43;;;3.30;;
20725;SDS011;10524;48.132;8.518;2023-08-17T13:07:05;5.93;;;3.38;;
20725;SDS011;10524;48.132;8.518;2023-08-17T13:09:30;7.22;;;3.30;;
20725;SDS011;10524;48.132;8.518;2023-08-17T13:11:56;4.53;;;3.40;;
20725;SDS011;10524;48.132;8.518;2023-08-17T13:14:22;3.83;;;3.40;;
20725;SDS011;10524;48.132;8.518;2023-08-17T13:16:48;6.47;;;3.55;;
20725;SDS011;10524;48.132;8.518;2023-08-17T13:19:14;5.43;;;3.78;;
20725;SDS011;10524;48.132;8.518;2023-08-17T13:21:40;8.60;;;3.80;;
20725;SDS011;10524;48.132;8.518;2023-08-17T13:24:06;4.50;;;3.38;;
20725;SDS011;10524;48.132;8.518;2023-08-17T13:26:32;5.78;;;3.67;;
20725;SDS011;10524;48.132;8.518;2023-08-17T13:28:57;6.88;;;3.40;;
20725;SDS011;10524;48.132;8.518;2023-08-17T13:31:23;5.55;;;3.10;;
20725;SDS011;10524;48.132;8.518;2023-08-17T13:33:49;4.07;;;2.85;;
20725;SDS011;10524;48.132;8.518;2023-08-17T13:36:18;4.45;;;2.97;;
20725;SDS011;10524;48.132;8.518;2023-08-17T13:38:44;5.13;;;2.97;;
20725;SDS011;10524;48.132;8.518;2023-08-17T13:41:10;4.22;;;2.97;;
20725;SDS011;10524;48.132;8.518;2023-08-17T13:43:36;3.80;;;3.15;;
20725;SDS011;10524;48.132;8.518;2023-08-17T13:46:04;5.13;;;2.60;;
20725;SDS011;10524;48.132;8.518;2023-08-17T13:48:30;8.93;;;2.90;;
20725;SDS011;10524;48.132;8.518;2023-08-17T13:50:55;5.65;;;3.00;;
20725;SDS011;10524;48.132;8.518;2023-08-17T13:53:23;3.85;;;2.90;;
20725;SDS011;10524;48.132;8.518;2023-08-17T13:55:48;4.00;;;2.97;;
20725;SDS011;10524;48.132;8.518;2023-08-17T13:58:14;5.93;;;3.30;;
20725;SDS011;10524;48.132;8.518;2023-08-17T14:00:40;5.88;;;3.22;;
20725;SDS011;10524;48.132;8.518;2023-08-17T14:03:06;4.43;;;3.33;;
20725;SDS011;10524;48.132;8.518;2023-08-17T14:05:32;6.45;;;3.15;;
20725;SDS011;10524;48.132;8.518;2023-08-17T14:07:58;5.40;;;3.45;;
20725;SDS011;10524;48.132;8.518;2023-08-17T14:10:24;4.35;;;3.38;;
20725;SDS011;10524;48.132;8.518;2023-08-17T14:12:49;3.88;;;3.03;;
20725;SDS011;10524;48.132;8.518;2023-08-17T14:15:15;5.68;;;3.20;;
20725;SDS011;10524;48.132;8.518;2023-08-17T14:17:40;5.15;;;2.85;;
20725;SDS011;10524;48.132;8.518;2023-08-17T14:20:06;5.10;;;2.95;;
20725;SDS011;10524;48.132;8.518;2023-08-17T14:22:33;4.18;;;2.80;;
20725;SDS011;10524;48.132;8.518;2023-08-17T14:24:59;4.72;;;3.30;;
20725;SDS011;10524;48.132;8.518;2023-08-17T14:27:24;4.90;;;3.20;;
20725;SDS011;10524;48.132;8.518;2023-08-17T14:29:50;6.03;;;3.15;;
20725;SDS011;10524;48.132;8.518;2023-08-17T14:32:15;5.05;;;3.40;;
20725;SDS011;10524;48.132;8.518;2023-08-17T14:34:41;6.40;;;3.08;;
20725;SDS011;10524;48.132;8.518;2023-08-17T14:37:07;5.53;;;2.88;;
20725;SDS011;10524;48.132;8.518;2023-08-17T14:39:32;5.50;;;3.05;;
20725;SDS011;10524;48.132;8.518;2023-08-17T14:41:58;4.85;;;3.20;;
20725;SDS011;10524;48.132;8.518;2023-08-17T14:44:24;4.47;;;3.20;;
20725;SDS011;10524;48.132;8.518;2023-08-17T14:46:49;5.63;;;2.72;;